Time;durP1;ratioP1;P1;durP2;ratioP2;P2;SDS_P1;SDS_P2;PMS_P1;PMS_P2;Temp;Humidity;BMP_temperature;BMP_pressure;BME280_temperature;BME280_humidity;BME280_pressure;Samples;Min_cycle;Max_cycle;Signal;HPM_P1;HPM_P2
2021/01/17 00:00:19;;;;;;;4.47;2.22;;;15.80;46.50;;;;;;5085580;28;20044;-50
2021/01/17 00:02:47;;;;;;;4.05;1.70;;;15.80;46.50;;;;;;5085384;28;20581;-52
2021/01/17 00:05:15;;;;;;;2.97;2.28;;;15.80;46.50;;;;;;5088173;28;20083;-50
2021/01/17 00:07:43;;;;;;;4.85;2.38;;;15.80;46.60;;;;;;5087700;28;20105;-49
2021/01/17 00:10:11;;;;;;;2.15;1.90;;;15.80;46.50;;;;;;5086395;28;20511;-54
2021/01/17 00:12:39;;;;;;;5.38;2.13;;;15.80;46.60;;;;;;5084859;28;20040;-51
2021/01/17 00:15:08;;;;;;;3.05;1.88;;;15.80;46.60;;;;;;5085471;28;20044;-52
2021/01/17 00:17:35;;;;;;;2.20;1.67;;;15.80;47.20;;;;;;5086106;28;20036;-55
2021/01/17 00:20:02;;;;;;;5.40;1.77;;;15.80;46.60;;;;;;5088362;28;20067;-52
2021/01/17 00:22:30;;;;;;;2.35;1.35;;;15.80;46.60;;;;;;5085342;28;20141;-51
2021/01/17 00:24:57;;;;;;;3.67;1.42;;;15.80;46.60;;;;;;5085475;28;20131;-49
2021/01/17 00:27:23;;;;;;;1.52;1.38;;;15.80;46.70;;;;;;5085035;28;20075;-54
2021/01/17 00:29:50;;;;;;;1.42;1.30;;;15.80;46.70;;;;;;5085556;28;20056;-49
2021/01/17 00:32:16;;;;;;;2.25;1.48;;;15.80;46.80;;;;;;5088267;28;20079;-55
2021/01/17 00:34:45;;;;;;;3.45;1.20;;;15.80;46.90;;;;;;5088046;28;20408;-51
2021/01/17 00:37:14;;;;;;;2.83;1.00;;;15.80;46.90;;;;;;5083129;28;20048;-49
2021/01/17 00:39:40;;;;;;;4.38;1.73;;;15.80;47.00;;;;;;5085459;28;20560;-53
2021/01/17 00:42:10;;;;;;;2.05;1.15;;;15.80;46.90;;;;;;5085003;28;20043;-55
2021/01/17 00:44:37;;;;;;;4.18;1.10;;;15.90;47.00;;;;;;5086920;28;20048;-50
2021/01/17 00:47:03;;;;;;;1.73;0.93;;;15.80;46.90;;;;;;5089114;28;20121;-49
2021/01/17 00:49:30;;;;;;;2.05;1.00;;;15.80;47.00;;;;;;5099988;28;20136;-51
2021/01/17 00:52:00;;;;;;;2.35;1.13;;;15.80;47.00;;;;;;5084566;28;20105;-49
2021/01/17 00:54:26;;;;;;;3.00;1.08;;;15.80;47.00;;;;;;5098629;28;20152;-49
2021/01/17 00:56:54;;;;;;;5.65;1.30;;;15.80;47.00;;;;;;5083502;28;20117;-53
2021/01/17 00:59:24;;;;;;;2.33;1.33;;;15.80;47.00;;;;;;5086053;28;20048;-53
2021/01/17 01:01:53;;;;;;;4.90;1.38;;;15.80;47.10;;;;;;5085958;28;20048;-52
2021/01/17 01:04:21;;;;;;;1.45;1.27;;;15.80;47.10;;;;;;5084198;28;20370;-51
2021/01/17 01:06:50;;;;;;;4.47;1.90;;;15.90;47.10;;;;;;5084408;28;20089;-51
2021/01/17 01:09:17;;;;;;;0.82;0.82;;;15.80;47.10;;;;;;5084025;28;20044;-52
2021/01/17 01:11:43;;;;;;;2.05;1.08;;;15.80;47.10;;;;;;5085334;28;20051;-53
2021/01/17 01:14:16;;;;;;;2.00;1.35;;;15.80;47.10;;;;;;5087967;28;20462;-54
2021/01/17 01:16:48;;;;;;;1.83;1.05;;;15.80;47.10;;;;;;5087505;28;20052;-55
2021/01/17 01:19:15;;;;;;;4.68;1.38;;;15.90;47.20;;;;;;5084629;28;20483;-51
2021/01/17 01:21:42;;;;;;;4.88;1.20;;;15.80;47.10;;;;;;5084754;28;20056;-60
2021/01/17 01:24:09;;;;;;;3.55;0.85;;;15.80;47.10;;;;;;5084425;28;20127;-50
2021/01/17 01:26:40;;;;;;;2.25;1.10;;;15.80;47.20;;;;;;5069152;28;20036;-53
2021/01/17 01:29:10;;;;;;;2.83;1.60;;;15.80;47.20;;;;;;5085012;28;20044;-51
2021/01/17 01:31:38;;;;;;;3.00;1.35;;;15.80;47.20;;;;;;5090690;28;20056;-52
2021/01/17 01:34:06;;;;;;;2.58;1.27;;;15.90;47.30;;;;;;5089057;28;20071;-50
2021/01/17 01:36:35;;;;;;;4.78;1.35;;;15.90;47.30;;;;;;5088019;28;20060;-53
2021/01/17 01:39:03;;;;;;;2.03;0.98;;;15.80;47.30;;;;;;5088403;28;20047;-52
2021/01/17 01:41:34;;;;;;;6.15;1.13;;;15.90;47.40;;;;;;5089894;28;20580;-52
2021/01/17 01:44:07;;;;;;;3.20;0.95;;;15.80;47.40;;;;;;5092579;28;20811;-53
2021/01/17 01:46:41;;;;;;;1.08;0.82;;;15.80;47.40;;;;;;5089359;28;20609;-51
2021/01/17 01:49:10;;;;;;;2.45;1.10;;;15.80;47.50;;;;;;5104137;28;20044;-50
2021/01/17 01:51:39;;;;;;;3.28;0.80;;;15.90;47.60;;;;;;5088418;28;20060;-50
2021/01/17 01:54:09;;;;;;;2.42;0.63;;;15.80;47.50;;;;;;5088266;28;20052;-50
2021/01/17 01:56:38;;;;;;;1.02;0.70;;;15.90;47.60;;;;;;5088780;28;20856;-54
2021/01/17 01:59:05;;;;;;;3.35;0.90;;;15.90;47.60;;;;;;5092373;28;20044;-53
2021/01/17 02:01:32;;;;;;;4.00;0.98;;;15.80;47.60;;;;;;5089534;28;20389;-54
2021/01/17 02:03:59;;;;;;;2.05;0.47;;;15.90;47.60;;;;;;5087891;28;20047;-56
2021/01/17 02:06:27;;;;;;;6.30;1.02;;;15.90;47.60;;;;;;5087997;28;20043;-54
2021/01/17 02:09:04;;;;;;;5.53;1.08;;;15.90;48.20;;;;;;5073573;28;20091;-57
2021/01/17 02:11:58;;;;;;;2.00;0.98;;;15.90;47.70;;;;;;5088098;28;20047;-51
2021/01/17 02:14:35;;;;;;;3.38;0.80;;;15.90;47.70;;;;;;5088087;28;20051;-58
2021/01/17 02:17:09;;;;;;;3.90;0.73;;;15.80;47.60;;;;;;5087262;28;20044;-58
2021/01/17 02:19:38;;;;;;;3.90;1.20;;;15.90;47.70;;;;;;5084789;28;20056;-53
2021/01/17 02:22:09;;;;;;;0.73;0.52;;;15.80;47.70;;;;;;5081089;28;20052;-50
2021/01/17 02:24:50;;;;;;;4.22;1.52;;;15.80;47.70;;;;;;5087276;28;20040;-52
2021/01/17 02:27:17;;;;;;;3.22;0.80;;;15.90;47.70;;;;;;5087083;28;20044;-54
2021/01/17 02:29:47;;;;;;;1.77;1.13;;;15.90;47.70;;;;;;5088574;28;20462;-58
2021/01/17 02:32:17;;;;;;;4.85;0.63;;;15.90;47.70;;;;;;5089884;28;20051;-55
2021/01/17 02:34:46;;;;;;;2.92;0.55;;;15.90;47.70;;;;;;5087553;28;20056;-51
2021/01/17 02:37:27;;;;;;;1.55;0.63;;;15.90;47.70;;;;;;5088203;28;20048;-52
2021/01/17 02:40:04;;;;;;;4.45;0.65;;;15.90;47.70;;;;;;5086470;28;20050;-52
2021/01/17 02:42:32;;;;;;;3.05;0.77;;;15.90;47.80;;;;;;5087722;28;20040;-54
2021/01/17 02:44:59;;;;;;;1.45;0.73;;;15.80;47.70;;;;;;5088683;28;20097;-57
2021/01/17 02:47:26;;;;;;;2.58;0.65;;;15.90;47.80;;;;;;5087996;28;20065;-56
2021/01/17 02:49:53;;;;;;;3.03;0.50;;;15.80;47.80;;;;;;5090256;28;20048;-52
2021/01/17 02:52:29;;;;;;;6.88;1.38;;;15.90;47.80;;;;;;5085666;28;20435;-54
2021/01/17 02:55:00;;;;;;;2.28;0.60;;;15.90;47.90;;;;;;5086022;28;20052;-57
2021/01/17 02:57:29;;;;;;;4.32;0.50;;;15.90;47.90;;;;;;5086475;28;20117;-55
2021/01/17 03:00:00;;;;;;;0.38;0.32;;;15.80;47.80;;;;;;5086776;28;20097;-54
2021/01/17 03:02:30;;;;;;;5.53;1.20;;;15.90;47.90;;;;;;5088427;28;20079;-57
2021/01/17 03:04:59;;;;;;;1.45;0.52;;;15.90;47.90;;;;;;5089505;28;20055;-54
2021/01/17 03:07:29;;;;;;;3.28;1.35;;;15.90;47.90;;;;;;5086021;28;20531;-50
2021/01/17 03:09:57;;;;;;;2.03;0.60;;;15.90;48.00;;;;;;5086545;28;20499;-55
2021/01/17 03:12:24;;;;;;;2.63;0.28;;;15.90;48.00;;;;;;5086603;28;20043;-54
2021/01/17 03:14:52;;;;;;;2.05;0.32;;;15.90;47.90;;;;;;5086779;28;20040;-54
2021/01/17 03:17:18;;;;;;;3.72;0.52;;;15.90;48.00;;;;;;5089018;28;20040;-55
2021/01/17 03:19:45;;;;;;;4.43;0.57;;;15.90;48.00;;;;;;5084117;28;20140;-54
2021/01/17 03:22:12;;;;;;;1.63;0.65;;;15.90;47.90;;;;;;5083825;28;20125;-55
2021/01/17 03:24:38;;;;;;;2.55;0.47;;;15.90;48.00;;;;;;5089696;28;20105;-56
2021/01/17 03:27:05;;;;;;;2.67;0.40;;;15.90;48.00;;;;;;5087656;28;20079;-50
2021/01/17 03:29:32;;;;;;;0.82;0.22;;;15.90;48.00;;;;;;5087995;28;20055;-51
2021/01/17 03:31:59;;;;;;;2.70;0.20;;;15.90;48.10;;;;;;5089527;28;20102;-55
2021/01/17 03:34:26;;;;;;;1.77;0.93;;;15.90;48.10;;;;;;5084651;28;20079;-54
2021/01/17 03:36:52;;;;;;;3.55;0.30;;;15.90;48.10;;;;;;5086596;28;20036;-54
2021/01/17 03:39:18;;;;;;;2.70;0.77;;;15.90;48.10;;;;;;5087185;28;20079;-50
2021/01/17 03:41:45;;;;;;;3.28;0.30;;;15.90;48.10;;;;;;5085265;28;20081;-51
2021/01/17 03:44:12;;;;;;;3.50;0.20;;;15.90;48.10;;;;;;5088242;28;20052;-53
2021/01/17 03:46:39;;;;;;;4.38;1.05;;;15.90;48.10;;;;;;5086113;28;20075;-52
2021/01/17 03:49:06;;;;;;;1.15;0.63;;;15.90;48.20;;;;;;5086982;28;20064;-55
2021/01/17 03:51:32;;;;;;;3.70;0.40;;;15.90;48.10;;;;;;5085009;28;20053;-54
2021/01/17 03:53:59;;;;;;;2.13;0.20;;;15.90;48.10;;;;;;5085310;28;20059;-54
2021/01/17 03:56:25;;;;;;;3.55;0.50;;;15.90;48.10;;;;;;5087811;28;20138;-55
2021/01/17 03:58:52;;;;;;;4.60;0.30;;;15.90;48.20;;;;;;5086927;28;20048;-49
2021/01/17 04:01:18;;;;;;;2.92;0.50;;;15.90;48.20;;;;;;5084685;28;20039;-50
2021/01/17 04:03:46;;;;;;;1.60;0.30;;;15.90;48.20;;;;;;5084872;28;20507;-56
2021/01/17 04:06:12;;;;;;;1.05;0.47;;;15.90;48.30;;;;;;5086914;28;20080;-56
2021/01/17 04:08:39;;;;;;;4.90;0.35;;;15.90;48.30;;;;;;5086286;28;20051;-53
2021/01/17 04:11:05;;;;;;;2.10;0.20;;;15.90;48.30;;;;;;5087623;28;20099;-54
2021/01/17 04:13:32;;;;;;;2.15;0.15;;;15.90;48.30;;;;;;5084672;28;20040;-55
2021/01/17 04:15:58;;;;;;;1.95;0.40;;;15.90;48.30;;;;;;5084548;28;20122;-54
2021/01/17 04:18:25;;;;;;;5.72;0.55;;;15.90;48.30;;;;;;5086459;28;20508;-55
2021/01/17 04:20:53;;;;;;;6.03;0.77;;;15.90;48.30;;;;;;5084981;28;20493;-54
2021/01/17 04:23:20;;;;;;;0.65;0.17;;;15.90;48.90;;;;;;5087091;28;20052;-55
2021/01/17 04:25:47;;;;;;;1.15;0.10;;;15.90;48.30;;;;;;5087438;28;20428;-54
2021/01/17 04:28:13;;;;;;;1.70;0.22;;;15.90;48.30;;;;;;5083222;28;20048;-53
2021/01/17 04:30:40;;;;;;;3.75;0.20;;;15.90;48.30;;;;;;5085839;28;20087;-56
2021/01/17 04:33:06;;;;;;;0.80;0.15;;;15.90;48.30;;;;;;5083605;28;20052;-53
2021/01/17 04:35:33;;;;;;;1.08;0.13;;;15.90;48.40;;;;;;5085918;28;20048;-54
2021/01/17 04:38:01;;;;;;;4.50;0.50;;;15.90;48.40;;;;;;5087277;28;20055;-53
2021/01/17 04:40:28;;;;;;;2.53;0.68;;;15.90;48.40;;;;;;5084734;28;20129;-55
2021/01/17 04:43:06;;;;;;;2.47;0.52;;;15.90;48.40;;;;;;5085182;28;20386;-58
2021/01/17 04:45:34;;;;;;;1.00;0.32;;;15.90;48.40;;;;;;5080895;28;20032;-49
2021/01/17 04:48:02;;;;;;;4.45;0.32;;;15.90;48.40;;;;;;5083929;28;20572;-51
2021/01/17 04:50:32;;;;;;;1.40;0.52;;;15.90;48.40;;;;;;5085770;28;20059;-53
2021/01/17 04:53:01;;;;;;;1.50;0.20;;;15.90;48.40;;;;;;5087454;28;20135;-50
2021/01/17 04:55:28;;;;;;;6.63;0.45;;;15.90;48.40;;;;;;5083939;28;20044;-54
2021/01/17 04:58:10;;;;;;;5.00;0.80;;;15.90;48.40;;;;;;5083502;28;20496;-52
2021/01/17 05:00:40;;;;;;;0.98;0.20;;;15.90;48.50;;;;;;5086560;28;20170;-54
2021/01/17 05:03:27;;;;;;;2.42;0.20;;;15.90;48.50;;;;;;5082957;28;20051;-54
2021/01/17 05:06:15;;;;;;;3.03;0.10;;;15.90;48.50;;;;;;5073126;28;20043;-53
2021/01/17 05:08:45;;;;;;;2.67;0.30;;;15.90;48.60;;;;;;5088033;28;20587;-55
2021/01/17 05:11:31;;;;;;;4.70;0.30;;;15.90;48.60;;;;;;5091939;28;20059;-57
2021/01/17 05:14:09;;;;;;;2.25;0.15;;;15.90;48.60;;;;;;5091584;28;20082;-54
2021/01/17 05:16:39;;;;;;;1.95;0.20;;;15.90;48.70;;;;;;5088018;28;20071;-53
2021/01/17 05:19:05;;;;;;;1.40;0.10;;;15.90;48.80;;;;;;5088062;28;20044;-52
2021/01/17 05:21:34;;;;;;;1.73;0.57;;;15.90;48.70;;;;;;5087414;28;20044;-53
2021/01/17 05:24:05;;;;;;;2.60;0.10;;;15.90;48.80;;;;;;5090084;28;20040;-54
2021/01/17 05:26:32;;;;;;;2.10;0.15;;;15.90;48.80;;;;;;5089612;28;20079;-54
2021/01/17 05:28:59;;;;;;;0.85;0.10;;;15.90;48.80;;;;;;5091192;28;20051;-55
2021/01/17 05:31:28;;;;;;;3.80;0.52;;;15.90;49.40;;;;;;5088970;28;20066;-54
2021/01/17 05:33:57;;;;;;;0.98;0.15;;;15.90;48.80;;;;;;5089077;28;20400;-55
2021/01/17 05:36:24;;;;;;;2.90;0.40;;;15.90;48.80;;;;;;5089961;28;20040;-53
2021/01/17 05:39:04;;;;;;;1.20;0.20;;;15.90;48.80;;;;;;5088245;28;20119;-53
2021/01/17 05:41:31;;;;;;;3.30;0.10;;;15.90;48.80;;;;;;5089217;28;20127;-53
2021/01/17 05:43:58;;;;;;;1.65;0.10;;;15.90;48.80;;;;;;5090644;28;20134;-56
2021/01/17 05:46:24;;;;;;;5.40;0.20;;;15.90;48.80;;;;;;5086296;28;20101;-51
2021/01/17 05:49:09;;;;;;;5.20;0.20;;;15.90;48.80;;;;;;5086806;28;20123;-54
2021/01/17 05:51:36;;;;;;;2.70;0.17;;;15.90;48.80;;;;;;5084819;28;20498;-51
2021/01/17 05:54:08;;;;;;;0.93;0.50;;;15.90;48.80;;;;;;5090388;28;20059;-55
2021/01/17 05:56:35;;;;;;;2.85;0.10;;;15.90;48.80;;;;;;5088073;28;20048;-53
2021/01/17 05:59:02;;;;;;;1.63;0.10;;;15.90;48.80;;;;;;5090544;28;20066;-50
2021/01/17 06:01:33;;;;;;;6.10;0.40;;;15.90;48.80;;;;;;5087594;28;20130;-54
2021/01/17 06:04:10;;;;;;;3.65;0.10;;;15.90;48.80;;;;;;5082913;28;20097;-53
2021/01/17 06:06:37;;;;;;;2.13;0.50;;;16.00;48.80;;;;;;5091310;28;20170;-50
2021/01/17 06:09:04;;;;;;;2.05;0.10;;;15.90;48.80;;;;;;5087020;28;20139;-55
2021/01/17 06:11:32;;;;;;;2.22;0.55;;;15.90;48.80;;;;;;5089588;28;20043;-53
2021/01/17 06:14:00;;;;;;;0.77;0.22;;;15.90;48.80;;;;;;5090337;28;20123;-53
2021/01/17 06:16:31;;;;;;;4.38;0.10;;;15.90;48.80;;;;;;5077625;28;20044;-50
2021/01/17 06:18:59;;;;;;;1.00;0.10;;;16.00;48.90;;;;;;5084269;28;20047;-53
2021/01/17 06:21:27;;;;;;;2.17;0.10;;;15.90;48.80;;;;;;5086795;28;20040;-54
2021/01/17 06:23:59;;;;;;;3.35;0.20;;;16.00;48.90;;;;;;5086927;28;20127;-55
2021/01/17 06:26:30;;;;;;;4.30;0.10;;;16.00;48.90;;;;;;5089804;28;20044;-54
2021/01/17 06:28:58;;;;;;;3.25;0.10;;;16.00;48.90;;;;;;5089860;28;20048;-57
2021/01/17 06:31:28;;;;;;;1.95;0.10;;;15.90;48.80;;;;;;5087353;28;20048;-54
2021/01/17 06:34:06;;;;;;;4.13;0.10;;;15.90;48.80;;;;;;5084540;28;20051;-57
2021/01/17 06:36:33;;;;;;;0.63;0.15;;;16.00;49.00;;;;;;5087472;28;20039;-54
2021/01/17 06:39:00;;;;;;;4.32;0.10;;;15.90;48.80;;;;;;5087568;28;20565;-55
2021/01/17 06:41:35;;;;;;;3.17;0.73;;;16.00;48.90;;;;;;5088836;28;20056;-53
2021/01/17 06:44:10;;;;;;;1.05;0.00;;;16.00;49.00;;;;;;5090935;28;20089;-54
2021/01/17 06:46:39;;;;;;;2.20;0.10;;;16.00;48.90;;;;;;5083218;28;20661;-53
2021/01/17 06:49:22;;;;;;;2.03;0.40;;;15.90;48.70;;;;;;5077602;28;20115;-53
2021/01/17 06:51:49;;;;;;;0.55;0.35;;;16.00;48.80;;;;;;5081812;28;20048;-52
2021/01/17 06:54:20;;;;;;;1.73;0.30;;;15.90;49.30;;;;;;5087110;28;20074;-52
2021/01/17 06:56:49;;;;;;;1.83;0.10;;;15.90;48.70;;;;;;5088582;28;20802;-53
2021/01/17 06:59:33;;;;;;;2.55;0.10;;;16.00;48.70;;;;;;5089520;28;20142;-52
2021/01/17 07:02:30;;;;;;;1.58;0.10;;;16.00;48.60;;;;;;5085205;28;20059;-54
2021/01/17 07:05:17;;;;;;;2.03;0.52;;;15.90;48.50;;;;;;5089049;28;20598;-54
2021/01/17 07:08:03;;;;;;;1.10;0.10;;;15.90;48.60;;;;;;5087098;28;20040;-58
2021/01/17 07:10:40;;;;;;;1.45;0.00;;;15.90;48.50;;;;;;5085797;28;20473;-52
2021/01/17 07:13:09;;;;;;;2.42;0.10;;;15.90;48.50;;;;;;5085827;28;20056;-55
2021/01/17 07:15:38;;;;;;;4.25;0.40;;;15.90;48.50;;;;;;5087669;28;20083;-50
2021/01/17 07:18:07;;;;;;;2.00;0.10;;;15.90;48.50;;;;;;5086199;28;20714;-53
2021/01/17 07:20:36;;;;;;;1.25;0.10;;;15.90;48.40;;;;;;5087960;28;20590;-53
2021/01/17 07:23:04;;;;;;;1.70;0.10;;;15.90;48.40;;;;;;5090074;28;20566;-49
2021/01/17 07:25:33;;;;;;;0.85;0.00;;;15.90;48.40;;;;;;5085831;28;20097;-53
2021/01/17 07:28:08;;;;;;;0.50;0.00;;;15.90;48.40;;;;;;5085105;28;20072;-51
2021/01/17 07:30:47;;;;;;;4.88;0.38;;;15.90;48.30;;;;;;5085148;28;20059;-51
2021/01/17 07:33:16;;;;;;;2.65;0.10;;;15.90;48.40;;;;;;5087139;28;20044;-51
2021/01/17 07:35:44;;;;;;;1.83;0.30;;;15.90;48.40;;;;;;5080920;28;20067;-50
2021/01/17 07:38:18;;;;;;;3.40;0.22;;;15.90;48.30;;;;;;5074830;28;20040;-52
2021/01/17 07:40:52;;;;;;;6.07;0.10;;;15.90;48.30;;;;;;5084605;28;20474;-57
2021/01/17 07:43:22;;;;;;;1.05;0.10;;;15.90;48.40;;;;;;5085517;28;20066;-53
2021/01/17 07:45:51;;;;;;;1.10;0.40;;;15.90;48.30;;;;;;5085549;28;20052;-49
2021/01/17 07:48:19;;;;;;;1.48;0.10;;;15.90;48.30;;;;;;5085278;28;20135;-53
2021/01/17 07:50:47;;;;;;;1.45;0.10;;;15.90;48.30;;;;;;5084998;28;20059;-53
2021/01/17 07:53:48;;;;;;;1.13;0.08;;;15.90;48.30;;;;;;5087720;28;20032;-54
2021/01/17 07:56:17;;;;;;;0.80;0.20;;;15.90;48.30;;;;;;5085870;28;20523;-53
2021/01/17 07:58:45;;;;;;;6.05;0.10;;;15.90;48.20;;;;;;5086491;28;20040;-55
2021/01/17 08:01:44;;;;;;;3.20;0.10;;;15.90;48.20;;;;;;5087699;28;20033;-54
2021/01/17 08:04:25;;;;;;;4.40;0.35;;;15.90;48.20;;;;;;5085107;28;20890;-49
2021/01/17 08:06:54;;;;;;;1.60;0.10;;;15.90;48.20;;;;;;5084756;28;20101;-51
2021/01/17 08:09:42;;;;;;;1.23;0.20;;;15.90;48.20;;;;;;5086620;28;20044;-55
2021/01/17 08:12:45;;;;;;;3.45;0.10;;;15.90;48.80;;;;;;5084946;28;20047;-52
2021/01/17 08:15:23;;;;;;;1.13;0.20;;;15.90;48.10;;;;;;5073320;28;20527;-54
2021/01/17 08:17:53;;;;;;;4.60;0.45;;;15.90;48.20;;;;;;5070101;28;20052;-53
2021/01/17 08:20:27;;;;;;;4.78;0.20;;;15.90;48.20;;;;;;5087747;28;20044;-54
2021/01/17 08:23:10;;;;;;;2.65;0.10;;;15.90;48.70;;;;;;5087467;28;20051;-52
2021/01/17 08:25:56;;;;;;;3.83;0.10;;;15.90;48.10;;;;;;5084609;28;20044;-52
2021/01/17 08:28:43;;;;;;;1.02;0.10;;;15.90;48.10;;;;;;5075139;28;20131;-54
2021/01/17 08:31:36;;;;;;;6.20;0.10;;;15.90;48.10;;;;;;5083707;28;20044;-53
2021/01/17 08:34:13;;;;;;;2.42;0.43;;;15.90;48.10;;;;;;5080309;28;20040;-54
2021/01/17 08:36:41;;;;;;;2.42;0.10;;;15.90;48.20;;;;;;5085268;28;20067;-53
2021/01/17 08:39:08;;;;;;;2.10;0.10;;;15.90;48.10;;;;;;5085069;28;20072;-54
2021/01/17 08:41:38;;;;;;;2.78;0.20;;;15.80;48.00;;;;;;5085191;28;20072;-53
2021/01/17 08:44:09;;;;;;;2.95;0.22;;;15.90;48.00;;;;;;5088681;28;20067;-51
2021/01/17 08:46:39;;;;;;;1.52;0.10;;;15.90;48.00;;;;;;5086654;28;20079;-49
2021/01/17 08:49:07;;;;;;;1.17;0.15;;;15.90;48.00;;;;;;5084639;28;20047;-49
2021/01/17 08:51:34;;;;;;;2.85;0.15;;;15.90;48.00;;;;;;5084849;28;20048;-50
2021/01/17 08:54:29;;;;;;;2.97;0.77;;;15.90;48.00;;;;;;5084563;28;20032;-55
2021/01/17 08:56:56;;;;;;;6.03;0.47;;;15.90;47.90;;;;;;5075199;28;20044;-50
2021/01/17 08:59:35;;;;;;;2.03;0.60;;;15.90;48.00;;;;;;5086910;28;20042;-54
2021/01/17 09:02:02;;;;;;;2.58;0.30;;;15.90;47.90;;;;;;5087304;28;20420;-55
2021/01/17 09:04:30;;;;;;;2.80;0.20;;;15.90;47.90;;;;;;5083485;28;20051;-55
2021/01/17 09:06:58;;;;;;;1.30;0.10;;;15.90;47.90;;;;;;5084392;28;20058;-52
2021/01/17 09:09:25;;;;;;;2.15;0.20;;;15.90;48.00;;;;;;5084365;28;20044;-55
2021/01/17 09:11:52;;;;;;;2.28;0.30;;;15.90;47.90;;;;;;5100385;28;20079;-51
2021/01/17 09:14:29;;;;;;;4.22;0.30;;;15.90;48.00;;;;;;5087464;28;20052;-53
2021/01/17 09:17:00;;;;;;;1.45;0.20;;;15.90;48.00;;;;;;5087206;28;20044;-52
2021/01/17 09:19:30;;;;;;;2.53;0.20;;;15.90;48.00;;;;;;5086099;28;20048;-52
2021/01/17 09:21:59;;;;;;;0.75;0.10;;;15.90;48.00;;;;;;5086135;28;20093;-53
2021/01/17 09:24:28;;;;;;;2.08;0.40;;;15.90;48.60;;;;;;5086075;28;20130;-54
2021/01/17 09:26:57;;;;;;;0.45;0.20;;;15.90;48.00;;;;;;5085919;28;20048;-54
2021/01/17 09:29:29;;;;;;;4.85;0.20;;;15.90;48.00;;;;;;5088368;28;20047;-54
2021/01/17 09:31:58;;;;;;;4.05;0.10;;;15.90;48.00;;;;;;5085721;28;20051;-49
2021/01/17 09:34:31;;;;;;;0.60;0.20;;;15.90;48.00;;;;;;5086474;28;20044;-55
2021/01/17 09:37:00;;;;;;;3.50;0.40;;;15.90;48.00;;;;;;5084335;28;20036;-57
2021/01/17 09:39:35;;;;;;;0.30;0.10;;;15.90;48.00;;;;;;5084422;28;20473;-53
2021/01/17 09:42:10;;;;;;;5.90;0.35;;;15.90;48.00;;;;;;5084033;28;20047;-54
2021/01/17 09:44:38;;;;;;;1.95;0.47;;;15.90;48.00;;;;;;5084558;28;20037;-50
2021/01/17 09:47:15;;;;;;;4.38;0.10;;;15.90;48.00;;;;;;5084282;28;20036;-52
2021/01/17 09:49:48;;;;;;;3.60;0.20;;;15.90;48.00;;;;;;5075816;28;20051;-50
2021/01/17 09:52:20;;;;;;;4.13;0.20;;;15.90;48.10;;;;;;5084752;28;20048;-56
2021/01/17 09:54:47;;;;;;;4.15;0.10;;;15.90;48.00;;;;;;5090439;28;20044;-51
2021/01/17 09:57:15;;;;;;;6.32;0.25;;;15.90;48.10;;;;;;5089157;28;20119;-54
2021/01/17 09:59:53;;;;;;;4.00;0.20;;;15.90;48.10;;;;;;5085220;28;20044;-52
2021/01/17 10:02:21;;;;;;;4.00;0.20;;;15.90;48.10;;;;;;5089645;28;20535;-54
2021/01/17 10:04:48;;;;;;;1.15;0.10;;;15.90;48.10;;;;;;5089537;28;20143;-53
2021/01/17 10:07:16;;;;;;;3.85;0.57;;;15.90;48.10;;;;;;5086545;28;20043;-50
2021/01/17 10:09:50;;;;;;;4.30;0.20;;;15.90;48.10;;;;;;5086497;28;20051;-54
2021/01/17 10:12:20;;;;;;;2.53;0.10;;;15.90;48.20;;;;;;5086916;28;20062;-55
2021/01/17 10:14:47;;;;;;;7.32;0.20;;;15.90;48.30;;;;;;5086772;28;20070;-53
2021/01/17 10:17:14;;;;;;;2.90;0.90;;;15.90;48.30;;;;;;5090394;28;20044;-56
2021/01/17 10:19:41;;;;;;;0.82;0.10;;;15.90;48.30;;;;;;5087900;28;20051;-52
2021/01/17 10:22:13;;;;;;;2.22;0.17;;;15.90;48.30;;;;;;5087975;28;20047;-52
2021/01/17 10:24:40;;;;;;;3.75;0.55;;;16.00;48.40;;;;;;5087361;28;20425;-55
2021/01/17 10:27:10;;;;;;;2.85;0.10;;;15.90;48.30;;;;;;5090229;28;20431;-55
2021/01/17 10:29:39;;;;;;;1.58;0.20;;;16.00;48.30;;;;;;5087986;28;20036;-55
2021/01/17 10:32:07;;;;;;;4.03;0.10;;;16.00;48.30;;;;;;5091128;28;20048;-54
2021/01/17 10:34:35;;;;;;;3.80;0.13;;;15.90;48.30;;;;;;5087737;28;20149;-55
2021/01/17 10:37:04;;;;;;;3.83;0.20;;;16.00;48.50;;;;;;5088377;28;20500;-55
2021/01/17 10:39:32;;;;;;;3.63;0.65;;;16.00;48.60;;;;;;5087467;28;20040;-51
2021/01/17 10:42:05;;;;;;;0.55;0.10;;;16.00;48.60;;;;;;5103041;28;20055;-53
2021/01/17 10:44:35;;;;;;;3.30;0.52;;;16.00;48.70;;;;;;5088795;28;20412;-55
2021/01/17 10:47:06;;;;;;;1.73;0.20;;;16.00;48.70;;;;;;5091311;28;20052;-54
2021/01/17 10:49:38;;;;;;;5.68;0.30;;;16.00;48.80;;;;;;5086961;28;20047;-54
2021/01/17 10:52:12;;;;;;;7.15;0.40;;;16.00;48.80;;;;;;5088692;28;20140;-55
2021/01/17 10:54:43;;;;;;;7.78;0.82;;;16.00;48.80;;;;;;5088361;28;20397;-51
2021/01/17 10:57:12;;;;;;;3.78;0.30;;;16.00;48.80;;;;;;5088712;28;20083;-53
2021/01/17 10:59:40;;;;;;;3.70;0.13;;;16.00;48.80;;;;;;5088232;28;20531;-55
2021/01/17 11:02:07;;;;;;;3.38;0.50;;;16.00;48.80;;;;;;5090291;28;20443;-54
2021/01/17 11:04:40;;;;;;;1.50;0.25;;;16.00;49.40;;;;;;5086663;28;20056;-52
2021/01/17 11:07:13;;;;;;;1.92;0.28;;;16.00;48.90;;;;;;5086855;28;20132;-52
2021/01/17 11:09:39;;;;;;;3.08;0.32;;;16.00;48.90;;;;;;5086924;28;20040;-50
2021/01/17 11:12:09;;;;;;;3.22;0.40;;;16.10;49.00;;;;;;5086762;28;20059;-55
2021/01/17 11:14:35;;;;;;;9.23;0.45;;;16.10;48.90;;;;;;5088665;28;20044;-52
2021/01/17 11:17:03;;;;;;;4.63;0.47;;;16.00;48.90;;;;;;5090849;28;20040;-54
2021/01/17 11:19:35;;;;;;;3.42;0.43;;;16.10;48.90;;;;;;5086259;28;20047;-52
2021/01/17 11:22:03;;;;;;;5.85;0.35;;;16.10;48.80;;;;;;5086205;28;20060;-49
2021/01/17 11:24:36;;;;;;;4.63;0.52;;;16.10;48.80;;;;;;5087996;28;20051;-54
2021/01/17 11:27:07;;;;;;;3.45;0.30;;;16.10;48.70;;;;;;5086705;28;20090;-53
2021/01/17 11:29:33;;;;;;;1.83;0.28;;;16.10;48.80;;;;;;5088213;28;20052;-53
2021/01/17 11:32:11;;;;;;;5.10;0.65;;;16.10;48.90;;;;;;5085470;28;20060;-54
2021/01/17 11:34:39;;;;;;;4.35;0.30;;;16.10;49.00;;;;;;5083175;28;20040;-50
2021/01/17 11:37:12;;;;;;;6.53;0.30;;;16.10;49.10;;;;;;5087774;28;20462;-54
2021/01/17 11:39:39;;;;;;;3.05;0.38;;;16.10;49.10;;;;;;5086437;28;20800;-56
2021/01/17 11:42:05;;;;;;;4.70;0.30;;;16.10;49.10;;;;;;5086419;28;20115;-53
2021/01/17 11:44:33;;;;;;;5.63;1.02;;;16.10;49.10;;;;;;5087132;28;20067;-50
2021/01/17 11:47:02;;;;;;;5.00;0.35;;;16.10;49.10;;;;;;5090291;28;20140;-49
2021/01/17 11:49:30;;;;;;;4.78;0.90;;;16.20;49.00;;;;;;5084336;28;20047;-55
2021/01/17 11:51:57;;;;;;;5.45;0.40;;;16.10;48.90;;;;;;5087167;28;20052;-54
2021/01/17 11:54:26;;;;;;;7.55;0.70;;;16.10;49.00;;;;;;5087221;28;20056;-52
2021/01/17 11:57:04;;;;;;;1.92;0.15;;;16.10;48.90;;;;;;5082693;28;20063;-52
2021/01/17 11:59:31;;;;;;;2.78;0.65;;;16.20;48.90;;;;;;5086903;28;20055;-52
2021/01/17 12:02:15;;;;;;;8.13;0.98;;;16.20;49.00;;;;;;5086724;28;20042;-49
2021/01/17 12:04:44;;;;;;;10.02;1.38;;;16.20;48.90;;;;;;5072371;28;20055;-52
2021/01/17 12:07:10;;;;;;;9.05;1.23;;;16.20;48.90;;;;;;5082931;28;20051;-50
2021/01/17 12:09:37;;;;;;;3.72;0.38;;;16.20;48.90;;;;;;5084806;28;20040;-54
2021/01/17 12:12:14;;;;;;;6.57;0.30;;;16.20;48.80;;;;;;5086442;28;20685;-54
2021/01/17 12:14:42;;;;;;;5.65;0.50;;;16.20;48.80;;;;;;5086291;28;20445;-55
2021/01/17 12:17:10;;;;;;;6.85;0.47;;;16.20;48.80;;;;;;5084223;28;20100;-53
2021/01/17 12:19:37;;;;;;;4.80;0.17;;;16.20;48.70;;;;;;5085845;28;20539;-54
2021/01/17 12:22:14;;;;;;;5.80;0.38;;;16.20;48.70;;;;;;5082278;28;20044;-54
2021/01/17 12:24:40;;;;;;;3.35;0.90;;;16.20;48.60;;;;;;5084330;28;20051;-54
2021/01/17 12:27:08;;;;;;;5.85;0.40;;;16.20;48.60;;;;;;5084351;28;20059;-50
2021/01/17 12:29:35;;;;;;;5.32;0.70;;;16.20;48.60;;;;;;5086782;28;20462;-52
2021/01/17 12:32:02;;;;;;;6.30;0.70;;;16.20;48.60;;;;;;5082235;28;20050;-53
2021/01/17 12:34:31;;;;;;;2.15;0.30;;;16.20;48.60;;;;;;5084148;28;20048;-55
2021/01/17 12:36:58;;;;;;;3.63;0.30;;;16.30;48.60;;;;;;5080495;28;20040;-54
2021/01/17 12:39:28;;;;;;;2.60;0.22;;;16.30;48.60;;;;;;5081453;28;20507;-53
2021/01/17 12:41:57;;;;;;;2.67;0.20;;;16.30;48.60;;;;;;5084617;28;20048;-55
2021/01/17 12:44:24;;;;;;;10.23;0.80;;;16.30;48.60;;;;;;5087165;28;20044;-57
2021/01/17 12:46:51;;;;;;;4.95;0.60;;;16.30;48.50;;;;;;5086050;28;20088;-51
2021/01/17 12:49:18;;;;;;;4.55;0.50;;;16.30;48.50;;;;;;5084206;28;20071;-55
2021/01/17 12:51:46;;;;;;;6.47;0.47;;;16.30;48.50;;;;;;5088950;28;20048;-54
2021/01/17 12:54:13;;;;;;;4.60;0.55;;;16.30;48.40;;;;;;5084654;28;20055;-53
2021/01/17 12:56:56;;;;;;;7.15;1.02;;;16.30;48.40;;;;;;5074325;28;20067;-52
2021/01/17 12:59:23;;;;;;;3.55;0.55;;;16.30;48.30;;;;;;5085893;28;20160;-54
2021/01/17 13:01:55;;;;;;;4.53;0.52;;;16.30;48.30;;;;;;5086570;28;20092;-53
2021/01/17 13:04:22;;;;;;;3.80;0.38;;;16.30;48.20;;;;;;5084339;28;20470;-56